createdAt,value
2023-02-08T00:03:43.060Z,-3.75
2023-02-08T00:08:48.463Z,-3.54
2023-02-08T00:13:54.046Z,-3.51
2023-02-08T00:19:01.757Z,-3.38
2023-02-08T00:24:07.167Z,-3.28
2023-02-08T00:29:12.354Z,-3.90
2023-02-08T00:34:19.893Z,-3.82
2023-02-08T00:39:29.185Z,-4.04
2023-02-08T00:44:34.464Z,-4.48
2023-02-08T00:49:42.051Z,-4.44
2023-02-08T00:54:47.144Z,-4.45
2023-02-08T00:59:52.165Z,-4.55
2023-02-08T01:05:00.221Z,-4.50
2023-02-08T01:10:06.415Z,-4.69
2023-02-08T01:15:12.694Z,-4.64
2023-02-08T01:20:20.430Z,-4.65
2023-02-08T01:25:25.514Z,-4.76
2023-02-08T01:30:30.434Z,-4.86
2023-02-08T01:35:38.016Z,-4.95
2023-02-08T01:40:43.372Z,-4.85
2023-02-08T01:45:49.397Z,-5.41
2023-02-08T01:51:01.542Z,-5.22
2023-02-08T01:56:12.685Z,-5.22
2023-02-08T02:01:18.796Z,-5.31
2023-02-08T02:06:31.452Z,-5.18
2023-02-08T02:11:36.462Z,-5.06
2023-02-08T02:16:41.442Z,-5.07
2023-02-08T02:22:00.523Z,-4.66
2023-02-08T02:27:32.961Z,-5.30
2023-02-08T02:32:54.021Z,-5.47
2023-02-08T02:38:09.348Z,-5.49
2023-02-08T02:43:32.248Z,-5.77
2023-02-08T02:48:45.527Z,-5.50
2023-02-08T02:53:58.154Z,-5.48
2023-02-08T02:59:08.364Z,-5.42
2023-02-08T03:04:22.365Z,-5.38
2023-02-08T03:09:50.774Z,-5.31
2023-02-08T03:15:02.322Z,-5.25
2023-02-08T03:20:15.102Z,-5.28
2023-02-08T03:25:24.034Z,-5.31
2023-02-08T03:30:46.114Z,-5.44
2023-02-08T03:35:59.382Z,-5.28
2023-02-08T03:41:11.110Z,-5.76
2023-02-08T03:46:19.968Z,-5.77
2023-02-08T03:51:31.591Z,-5.58
2023-02-08T03:56:43.692Z,-5.68
2023-02-08T04:01:54.645Z,-5.56
2023-02-08T04:07:02.606Z,-5.51
2023-02-08T04:12:08.854Z,-5.57
2023-02-08T04:17:13.784Z,-5.46
2023-02-08T04:22:21.393Z,-5.46
2023-02-08T04:27:26.397Z,-5.46
2023-02-08T04:32:31.303Z,-5.38
2023-02-08T04:37:38.891Z,-5.26
2023-02-08T04:42:50.832Z,-5.32
2023-02-08T04:47:55.696Z,-5.29
2023-02-08T04:53:06.621Z,-5.32
2023-02-08T04:58:11.579Z,-5.25
2023-02-08T05:03:16.594Z,-5.33
2023-02-08T05:08:25.376Z,-5.32
2023-02-08T05:13:30.368Z,-5.34
2023-02-08T05:18:35.270Z,-5.38
2023-02-08T05:23:43.527Z,-5.32
2023-02-08T05:28:49.734Z,-5.30
2023-02-08T05:33:55.787Z,-5.27
2023-02-08T05:39:03.397Z,-5.31
2023-02-08T05:44:08.759Z,-5.33
2023-02-08T05:49:13.787Z,-5.28
2023-02-08T05:54:21.750Z,-5.26
2023-02-08T05:59:27.489Z,-5.20
2023-02-08T06:04:32.801Z,-5.19
2023-02-08T06:09:40.619Z,-5.13
2023-02-08T06:14:46.186Z,-5.03
2023-02-08T06:19:51.632Z,-5.05
2023-02-08T06:24:59.701Z,-5.09
2023-02-08T06:30:04.934Z,-5.09
2023-02-08T06:35:10.978Z,-5.02
2023-02-08T06:40:21.067Z,-5.12
2023-02-08T06:45:26.023Z,-5.04
2023-02-08T06:50:31.193Z,-5.03
2023-02-08T06:55:38.907Z,-4.99
2023-02-08T07:00:45.465Z,-4.88
2023-02-08T07:06:11.671Z,-4.91
2023-02-08T07:11:25.504Z,-4.90
2023-02-08T07:16:30.820Z,-4.73
2023-02-08T07:21:36.180Z,-4.69
2023-02-08T07:26:43.982Z,-4.59
2023-02-08T07:31:50.549Z,-4.39
2023-02-08T07:36:55.521Z,-4.39
2023-02-08T07:42:08.285Z,-4.24
2023-02-08T07:47:20.005Z,-3.99
2023-02-08T07:52:34.283Z,-3.90
2023-02-08T07:57:47.305Z,-3.71
2023-02-08T08:02:53.757Z,-3.67
2023-02-08T08:07:58.880Z,-3.70
2023-02-08T08:13:09.422Z,-3.52
2023-02-08T08:18:14.864Z,-3.41
2023-02-08T08:23:21.090Z,-3.25
2023-02-08T08:28:29.578Z,-3.23
2023-02-08T08:33:34.784Z,-3.15
2023-02-08T08:38:44.067Z,-2.96
2023-02-08T08:43:56.346Z,-2.85
2023-02-08T08:49:05.386Z,-2.76
2023-02-08T08:54:16.365Z,-2.35
2023-02-08T08:59:24.249Z,-2.07
2023-02-08T09:04:29.608Z,-2.32
2023-02-08T09:09:38.063Z,-0.55
2023-02-08T09:14:47.059Z,-0.63
2023-02-08T09:19:53.028Z,-0.10
2023-02-08T09:24:58.128Z,0.77
2023-02-08T09:30:06.044Z,0.88
2023-02-08T09:35:13.485Z,1.61
2023-02-08T09:40:27.687Z,1.00
2023-02-08T09:45:58.934Z,1.08
2023-02-08T09:51:12.130Z,1.88
2023-02-08T09:56:20.303Z,1.36
2023-02-08T10:01:30.695Z,2.18
2023-02-08T10:06:36.820Z,1.41
2023-02-08T10:11:54.027Z,1.66
2023-02-08T10:17:11.587Z,1.45
2023-02-08T10:22:30.147Z,0.85
2023-02-08T10:28:09.592Z,0.45
2023-02-08T10:33:34.873Z,1.04
2023-02-08T10:38:46.976Z,0.75
2023-02-08T10:43:58.431Z,1.87
2023-02-08T10:49:17.424Z,1.83
2023-02-08T10:54:22.346Z,1.47
2023-02-08T10:59:31.727Z,1.56
2023-02-08T11:05:04.095Z,1.68
2023-02-08T11:10:30.479Z,1.57
2023-02-08T11:15:43.138Z,1.84
2023-02-08T11:20:55.404Z,1.97
2023-02-08T11:26:20.421Z,2.26
2023-02-08T11:31:25.399Z,2.30
2023-02-08T11:36:37.087Z,2.55
2023-02-08T11:41:48.244Z,2.04
2023-02-08T11:46:54.773Z,3.79
2023-02-08T11:52:02.637Z,3.25
2023-02-08T11:57:15.836Z,3.55
2023-02-08T12:02:32.546Z,2.74
2023-02-08T12:07:58.584Z,4.44
2023-02-08T12:13:22.006Z,3.41
2023-02-08T12:18:49.463Z,3.96
2023-02-08T12:24:02.806Z,5.86
2023-02-08T12:29:45.668Z,4.89
2023-02-08T12:35:06.662Z,4.22
2023-02-08T12:40:39.776Z,4.62
2023-02-08T12:46:07.116Z,4.67
2023-02-08T12:51:23.938Z,4.50
2023-02-08T12:56:38.352Z,5.93
2023-02-08T13:01:49.213Z,5.19
2023-02-08T13:06:58.988Z,4.39
2023-02-08T13:12:15.850Z,4.11
2023-02-08T13:17:25.805Z,4.30
2023-02-08T13:22:34.609Z,4.79
2023-02-08T13:27:42.734Z,3.91
2023-02-08T13:32:50.776Z,4.02
2023-02-08T13:38:08.454Z,2.59
2023-02-08T13:43:35.182Z,3.28
2023-02-08T13:48:47.987Z,3.33
2023-02-08T13:54:13.614Z,3.29
2023-02-08T13:59:42.243Z,3.57
2023-02-08T14:04:48.559Z,3.66
2023-02-08T14:10:09.602Z,3.53
2023-02-08T14:15:34.059Z,2.95
2023-02-08T14:20:42.884Z,3.03
2023-02-08T14:25:51.881Z,2.66
2023-02-08T14:31:02.651Z,2.31
2023-02-08T14:36:11.695Z,2.23
2023-02-08T14:41:51.184Z,2.31
2023-02-08T14:47:01.054Z,2.21
2023-02-08T14:52:15.864Z,2.28
2023-02-08T14:57:28.371Z,1.83
2023-02-08T15:02:39.673Z,2.04
2023-02-08T15:07:51.768Z,1.71
2023-02-08T15:13:00.852Z,1.58
2023-02-08T15:18:19.112Z,1.53
2023-02-08T15:23:25.542Z,1.47
2023-02-08T15:28:33.076Z,1.31
2023-02-08T15:33:42.651Z,1.28
2023-02-08T15:38:48.329Z,1.29
2023-02-08T15:43:53.375Z,1.23
2023-02-08T15:49:03.795Z,0.83
2023-02-08T15:54:09.511Z,0.86
2023-02-08T15:59:22.927Z,0.81
2023-02-08T16:04:33.010Z,0.52
2023-02-08T16:09:39.433Z,0.33
2023-02-08T16:14:52.429Z,0.18
2023-02-08T16:20:02.957Z,0.10
2023-02-08T16:25:27.020Z,-0.11
2023-02-08T16:30:34.766Z,-0.25
2023-02-08T16:35:46.430Z,-0.11
2023-02-08T16:40:53.610Z,-0.20
2023-02-08T16:46:31.022Z,-0.03
2023-02-08T16:51:43.355Z,-0.39
2023-02-08T16:56:53.760Z,-0.48
2023-02-08T17:01:59.066Z,-0.45
2023-02-08T17:07:09.858Z,-0.56
2023-02-08T17:12:22.522Z,-0.72
2023-02-08T17:17:29.349Z,-0.87
2023-02-08T17:22:39.533Z,-1.03
2023-02-08T17:27:44.463Z,-1.09
2023-02-08T17:32:50.047Z,-0.99
2023-02-08T17:37:59.402Z,-0.70
2023-02-08T17:43:05.343Z,-0.84
2023-02-08T17:48:13.358Z,-0.90
2023-02-08T17:53:21.424Z,-0.87
2023-02-08T17:58:28.638Z,-0.83
2023-02-08T18:03:36.362Z,-0.83
2023-02-08T18:08:44.231Z,-0.86
2023-02-08T18:13:54.962Z,-0.98
2023-02-08T18:19:01.948Z,-1.05
2023-02-08T18:24:10.126Z,-1.03
2023-02-08T18:29:17.263Z,-1.00
2023-02-08T18:34:23.299Z,-0.98
2023-02-08T18:39:33.222Z,-0.94
2023-02-08T18:44:39.526Z,-0.99
2023-02-08T18:49:44.899Z,-0.95
2023-02-08T18:54:53.665Z,-1.15
2023-02-08T19:00:01.250Z,-1.18
2023-02-08T19:05:06.499Z,-1.19
2023-02-08T19:10:15.239Z,-1.15
2023-02-08T19:15:20.292Z,-1.23
2023-02-08T19:20:25.808Z,-1.38
2023-02-08T19:25:34.849Z,-1.55
2023-02-08T19:30:40.095Z,-1.67
2023-02-08T19:35:45.587Z,-1.62
2023-02-08T19:40:58.069Z,-1.57
2023-02-08T19:46:04.186Z,-1.64
2023-02-08T19:51:12.524Z,-1.55
2023-02-08T19:56:22.307Z,-1.56
2023-02-08T20:01:30.539Z,-1.65
2023-02-08T20:06:48.062Z,-1.71
2023-02-08T20:11:59.799Z,-1.60
2023-02-08T20:17:05.870Z,-1.65
2023-02-08T20:22:12.692Z,-1.56
2023-02-08T20:27:23.004Z,-1.62
2023-02-08T20:32:30.015Z,-1.51
2023-02-08T20:37:36.030Z,-1.49
2023-02-08T20:42:44.820Z,-1.38
2023-02-08T20:47:49.837Z,-1.36
2023-02-08T20:52:55.729Z,-1.32
2023-02-08T20:58:03.601Z,-1.33
2023-02-08T21:03:11.548Z,-1.40
2023-02-08T21:08:16.595Z,-1.28
2023-02-08T21:13:26.335Z,-1.26
2023-02-08T21:18:31.381Z,-1.28
2023-02-08T21:23:37.406Z,-1.27
2023-02-08T21:28:45.301Z,-1.16
2023-02-08T21:33:51.193Z,-1.16
2023-02-08T21:38:56.577Z,-1.11
2023-02-08T21:44:08.258Z,-1.13
2023-02-08T21:49:26.288Z,-1.08
2023-02-08T21:54:49.354Z,-1.06
2023-02-08T21:59:59.760Z,-1.01
2023-02-08T22:05:06.000Z,-1.03
2023-02-08T22:10:13.560Z,-1.01
2023-02-08T22:15:22.871Z,-1.03
2023-02-08T22:20:30.147Z,-1.13
2023-02-08T22:25:36.117Z,-1.09
2023-02-08T22:30:44.808Z,-1.13
2023-02-08T22:35:50.196Z,-1.17
2023-02-08T22:40:55.764Z,-1.16
2023-02-08T22:46:06.558Z,-1.03
2023-02-08T22:51:13.479Z,-1.24
2023-02-08T22:56:22.444Z,-1.18
2023-02-08T23:01:30.381Z,-1.27
2023-02-08T23:06:35.879Z,-1.24
2023-02-08T23:11:41.132Z,-1.26
2023-02-08T23:16:48.669Z,-1.28
2023-02-08T23:21:53.798Z,-1.22
2023-02-08T23:26:58.917Z,-1.28
2023-02-08T23:32:06.637Z,-1.28
2023-02-08T23:37:11.623Z,-1.32
2023-02-08T23:42:25.651Z,-1.37
2023-02-08T23:47:33.546Z,-1.31
2023-02-08T23:52:39.777Z,-1.31
2023-02-08T23:57:44.925Z,-1.29
